sensor_id;sensor_type;location;lat;lon;timestamp;pressure;altitude;pressure_sealevel;temperature;humidity
6343;BME280;3204;42.698;23.298;2023-04-04T00:00:13;93483.03;;;8.47;100.00
6343;BME280;3204;42.698;23.298;2023-04-04T00:02:38;93481.91;;;8.48;100.00
6343;BME280;3204;42.698;23.298;2023-04-04T00:05:05;93479.75;;;8.53;100.00
6343;BME280;3204;42.698;23.298;2023-04-04T00:07:30;93474.63;;;8.60;100.00
6343;BME280;3204;42.698;23.298;2023-04-04T00:09:56;93470.41;;;8.51;100.00
6343;BME280;3204;42.698;23.298;2023-04-04T00:12:22;93483.16;;;8.50;100.00
6343;BME280;3204;42.698;23.298;2023-04-04T00:14:48;93474.91;;;8.47;100.00
6343;BME280;3204;42.698;23.298;2023-04-04T00:17:14;93480.31;;;8.47;100.00
6343;BME280;3204;42.698;23.298;2023-04-04T00:19:39;93480.03;;;8.40;100.00
6343;BME280;3204;42.698;23.298;2023-04-04T00:22:05;93482.16;;;8.34;100.00
6343;BME280;3204;42.698;23.298;2023-04-04T00:24:31;93473.72;;;8.36;100.00
6343;BME280;3204;42.698;23.298;2023-04-04T00:26:56;93477.94;;;8.45;100.00
6343;BME280;3204;42.698;23.298;2023-04-04T00:29:22;93465.56;;;8.44;100.00
6343;BME280;3204;42.698;23.298;2023-04-04T00:31:47;93454.75;;;8.44;100.00
6343;BME280;3204;42.698;23.298;2023-04-04T00:34:13;93450.47;;;8.43;100.00
6343;BME280;3204;42.698;23.298;2023-04-04T00:36:38;93436.72;;;8.36;100.00
6343;BME280;3204;42.698;23.298;2023-04-04T00:39:04;93446.69;;;8.56;100.00
6343;BME280;3204;42.698;23.298;2023-04-04T00:41:29;93439.28;;;8.65;100.00
6343;BME280;3204;42.698;23.298;2023-04-04T00:43:55;93443.00;;;8.61;100.00
6343;BME280;3204;42.698;23.298;2023-04-04T00:46:21;93443.13;;;8.64;100.00
6343;BME280;3204;42.698;23.298;2023-04-04T00:48:48;93439.41;;;8.69;100.00
6343;BME280;3204;42.698;23.298;2023-04-04T00:51:13;93433.97;;;8.57;100.00
6343;BME280;3204;42.698;23.298;2023-04-04T00:53:39;93436.81;;;8.72;100.00
6343;BME280;3204;42.698;23.298;2023-04-04T00:56:07;93428.31;;;8.94;100.00
6343;BME280;3204;42.698;23.298;2023-04-04T00:58:33;93428.53;;;8.89;100.00
6343;BME280;3204;42.698;23.298;2023-04-04T01:00:59;93425.72;;;8.86;100.00
6343;BME280;3204;42.698;23.298;2023-04-04T01:03:25;93428.91;;;9.00;100.00
6343;BME280;3204;42.698;23.298;2023-04-04T01:05:53;93439.03;;;9.03;100.00
6343;BME280;3204;42.698;23.298;2023-04-04T01:08:20;93439.72;;;9.00;100.00
6343;BME280;3204;42.698;23.298;2023-04-04T01:10:47;93441.75;;;9.15;100.00
6343;BME280;3204;42.698;23.298;2023-04-04T01:13:13;93448.75;;;9.16;100.00
6343;BME280;3204;42.698;23.298;2023-04-04T01:15:39;93456.19;;;9.19;100.00
6343;BME280;3204;42.698;23.298;2023-04-04T01:18:06;93456.41;;;9.26;100.00
6343;BME280;3204;42.698;23.298;2023-04-04T01:20:36;93451.69;;;9.35;100.00
6343;BME280;3204;42.698;23.298;2023-04-04T01:23:04;93456.88;;;9.40;100.00
6343;BME280;3204;42.698;23.298;2023-04-04T01:25:31;93462.63;;;9.38;100.00
6343;BME280;3204;42.698;23.298;2023-04-04T01:27:58;93472.44;;;9.43;100.00
6343;BME280;3204;42.698;23.298;2023-04-04T01:30:27;93462.97;;;9.49;100.00
6343;BME280;3204;42.698;23.298;2023-04-04T01:33:02;93453.97;;;9.57;100.00
6343;BME280;3204;42.698;23.298;2023-04-04T01:35:42;93450.44;;;9.56;100.00
6343;BME280;3204;42.698;23.298;2023-04-04T01:40:55;93455.88;;;9.68;100.00
6343;BME280;3204;42.698;23.298;2023-04-04T01:43:22;93451.34;;;9.60;100.00
6343;BME280;3204;42.698;23.298;2023-04-04T01:45:48;93433.63;;;9.51;100.00
6343;BME280;3204;42.698;23.298;2023-04-04T01:48:13;93431.97;;;9.58;100.00
6343;BME280;3204;42.698;23.298;2023-04-04T01:50:40;93429.59;;;9.57;100.00
6343;BME280;3204;42.698;23.298;2023-04-04T01:53:06;93416.06;;;9.33;100.00
6343;BME280;3204;42.698;23.298;2023-04-04T01:55:31;93408.19;;;9.28;100.00
6343;BME280;3204;42.698;23.298;2023-04-04T01:57:57;93402.31;;;9.26;100.00
6343;BME280;3204;42.698;23.298;2023-04-04T02:00:23;93403.88;;;9.27;100.00
6343;BME280;3204;42.698;23.298;2023-04-04T02:02:48;93399.50;;;9.22;100.00
6343;BME280;3204;42.698;23.298;2023-04-04T02:05:13;93405.69;;;9.35;100.00
6343;BME280;3204;42.698;23.298;2023-04-04T02:07:39;93402.66;;;9.36;100.00
6343;BME280;3204;42.698;23.298;2023-04-04T02:10:05;93409.28;;;9.27;100.00
6343;BME280;3204;42.698;23.298;2023-04-04T02:12:30;93415.06;;;9.25;100.00
6343;BME280;3204;42.698;23.298;2023-04-04T02:14:56;93417.41;;;9.27;100.00
6343;BME280;3204;42.698;23.298;2023-04-04T02:17:21;93412.34;;;9.25;100.00
6343;BME280;3204;42.698;23.298;2023-04-04T02:19:46;93403.44;;;9.13;100.00
6343;BME280;3204;42.698;23.298;2023-04-04T02:22:12;93396.88;;;9.02;100.00
6343;BME280;3204;42.698;23.298;2023-04-04T02:24:37;93401.16;;;9.03;100.00
6343;BME280;3204;42.698;23.298;2023-04-04T02:27:03;93400.16;;;9.07;100.00
6343;BME280;3204;42.698;23.298;2023-04-04T02:29:29;93396.22;;;9.05;100.00
6343;BME280;3204;42.698;23.298;2023-04-04T02:31:54;93400.72;;;9.13;100.00
6343;BME280;3204;42.698;23.298;2023-04-04T02:34:19;93398.38;;;9.11;100.00
6343;BME280;3204;42.698;23.298;2023-04-04T02:36:45;93393.63;;;9.08;100.00
6343;BME280;3204;42.698;23.298;2023-04-04T02:39:11;93405.47;;;9.04;100.00
6343;BME280;3204;42.698;23.298;2023-04-04T02:41:36;93400.28;;;8.99;100.00
6343;BME280;3204;42.698;23.298;2023-04-04T02:44:01;93404.34;;;9.05;100.00
6343;BME280;3204;42.698;23.298;2023-04-04T02:46:27;93406.56;;;9.03;100.00
6343;BME280;3204;42.698;23.298;2023-04-04T02:48:52;93407.03;;;9.17;100.00
6343;BME280;3204;42.698;23.298;2023-04-04T02:51:18;93419.22;;;9.11;100.00
6343;BME280;3204;42.698;23.298;2023-04-04T02:53:43;93411.88;;;9.23;100.00
6343;BME280;3204;42.698;23.298;2023-04-04T02:56:09;93408.41;;;9.23;98.75
6343;BME280;3204;42.698;23.298;2023-04-04T02:58:34;93412.13;;;9.18;98.13
6343;BME280;3204;42.698;23.298;2023-04-04T03:00:59;93404.00;;;9.18;97.93
6343;BME280;3204;42.698;23.298;2023-04-04T03:03:25;93413.25;;;9.29;98.31
6343;BME280;3204;42.698;23.298;2023-04-04T03:05:51;93410.66;;;9.33;98.01
6343;BME280;3204;42.698;23.298;2023-04-04T03:08:17;93412.81;;;9.27;97.86
6343;BME280;3204;42.698;23.298;2023-04-04T03:10:43;93410.19;;;9.31;98.12
6343;BME280;3204;42.698;23.298;2023-04-04T03:13:09;93428.69;;;9.17;97.92
6343;BME280;3204;42.698;23.298;2023-04-04T03:15:34;93419.88;;;9.08;99.78
6343;BME280;3204;42.698;23.298;2023-04-04T03:18:00;93436.13;;;9.20;99.91
6343;BME280;3204;42.698;23.298;2023-04-04T03:20:26;93430.59;;;9.28;99.91
6343;BME280;3204;42.698;23.298;2023-04-04T03:22:52;93433.63;;;9.27;100.00
6343;BME280;3204;42.698;23.298;2023-04-04T03:25:17;93432.53;;;9.40;100.00
6343;BME280;3204;42.698;23.298;2023-04-04T03:27:43;93419.00;;;9.52;99.44
6343;BME280;3204;42.698;23.298;2023-04-04T03:30:09;93424.63;;;9.59;99.06
6343;BME280;3204;42.698;23.298;2023-04-04T03:32:36;93423.41;;;9.44;99.97
6343;BME280;3204;42.698;23.298;2023-04-04T03:35:02;93416.84;;;9.33;100.00
6343;BME280;3204;42.698;23.298;2023-04-04T03:37:28;93425.28;;;9.32;100.00
6343;BME280;3204;42.698;23.298;2023-04-04T03:39:54;93423.75;;;9.19;100.00
6343;BME280;3204;42.698;23.298;2023-04-04T03:42:20;93420.69;;;9.20;100.00
6343;BME280;3204;42.698;23.298;2023-04-04T03:44:46;93423.63;;;9.27;100.00
6343;BME280;3204;42.698;23.298;2023-04-04T03:47:12;93428.91;;;9.36;100.00
6343;BME280;3204;42.698;23.298;2023-04-04T03:49:38;93426.44;;;9.43;100.00
6343;BME280;3204;42.698;23.298;2023-04-04T03:52:03;93434.22;;;9.44;100.00
6343;BME280;3204;42.698;23.298;2023-04-04T03:54:29;93433.19;;;9.49;100.00
6343;BME280;3204;42.698;23.298;2023-04-04T03:56:55;93428.94;;;9.48;100.00
6343;BME280;3204;42.698;23.298;2023-04-04T03:59:21;93424.66;;;9.47;100.00
6343;BME280;3204;42.698;23.298;2023-04-04T04:01:47;93434.09;;;9.53;100.00
6343;BME280;3204;42.698;23.298;2023-04-04T04:04:13;93434.69;;;9.58;100.00
6343;BME280;3204;42.698;23.298;2023-04-04T04:06:38;93432.75;;;9.59;100.00
6343;BME280;3204;42.698;23.298;2023-04-04T04:09:04;93430.50;;;9.61;100.00
6343;BME280;3204;42.698;23.298;2023-04-04T04:11:29;93426.53;;;9.70;100.00
6343;BME280;3204;42.698;23.298;2023-04-04T04:13:55;93431.38;;;9.65;100.00
6343;BME280;3204;42.698;23.298;2023-04-04T04:16:21;93427.91;;;9.64;100.00
6343;BME280;3204;42.698;23.298;2023-04-04T04:18:47;93435.31;;;9.67;100.00
6343;BME280;3204;42.698;23.298;2023-04-04T04:21:12;93427.78;;;9.61;100.00
6343;BME280;3204;42.698;23.298;2023-04-04T04:23:38;93436.16;;;9.56;100.00
6343;BME280;3204;42.698;23.298;2023-04-04T04:26:03;93435.78;;;9.57;100.00
6343;BME280;3204;42.698;23.298;2023-04-04T04:28:29;93434.53;;;9.55;100.00
6343;BME280;3204;42.698;23.298;2023-04-04T04:30:55;93442.66;;;9.55;100.00
6343;BME280;3204;42.698;23.298;2023-04-04T04:33:26;93442.91;;;9.62;100.00
6343;BME280;3204;42.698;23.298;2023-04-04T04:35:57;93454.75;;;9.69;100.00
6343;BME280;3204;42.698;23.298;2023-04-04T04:38:23;93451.94;;;9.66;100.00
6343;BME280;3204;42.698;23.298;2023-04-04T04:40:48;93462.53;;;9.71;100.00
6343;BME280;3204;42.698;23.298;2023-04-04T04:43:13;93462.19;;;9.72;100.00
6343;BME280;3204;42.698;23.298;2023-04-04T04:45:40;93472.00;;;9.77;100.00
6343;BME280;3204;42.698;23.298;2023-04-04T04:48:06;93464.09;;;9.72;100.00
6343;BME280;3204;42.698;23.298;2023-04-04T04:50:31;93464.00;;;9.68;100.00
6343;BME280;3204;42.698;23.298;2023-04-04T04:52:57;93471.31;;;9.68;100.00
6343;BME280;3204;42.698;23.298;2023-04-04T04:55:23;93466.81;;;9.72;100.00
6343;BME280;3204;42.698;23.298;2023-04-04T04:57:48;93476.25;;;9.78;100.00
6343;BME280;3204;42.698;23.298;2023-04-04T05:00:14;93474.69;;;9.77;100.00
6343;BME280;3204;42.698;23.298;2023-04-04T05:02:41;93488.91;;;9.86;100.00
6343;BME280;3204;42.698;23.298;2023-04-04T05:05:06;93489.25;;;9.84;100.00
6343;BME280;3204;42.698;23.298;2023-04-04T05:07:32;93494.31;;;9.86;100.00
6343;BME280;3204;42.698;23.298;2023-04-04T05:09:57;93495.78;;;9.83;100.00
6343;BME280;3204;42.698;23.298;2023-04-04T05:12:23;93488.09;;;9.85;100.00
6343;BME280;3204;42.698;23.298;2023-04-04T05:14:48;93492.94;;;9.92;100.00
6343;BME280;3204;42.698;23.298;2023-04-04T05:17:14;93497.00;;;9.98;100.00
6343;BME280;3204;42.698;23.298;2023-04-04T05:19:39;93498.25;;;10.00;100.00
6343;BME280;3204;42.698;23.298;2023-04-04T05:22:05;93498.03;;;10.05;100.00
6343;BME280;3204;42.698;23.298;2023-04-04T05:24:31;93506.28;;;10.09;100.00
6343;BME280;3204;42.698;23.298;2023-04-04T05:26:57;93500.66;;;10.14;100.00
6343;BME280;3204;42.698;23.298;2023-04-04T05:29:22;93505.34;;;10.17;100.00
6343;BME280;3204;42.698;23.298;2023-04-04T05:31:47;93508.78;;;10.14;100.00
6343;BME280;3204;42.698;23.298;2023-04-04T05:34:13;93507.84;;;10.22;100.00
6343;BME280;3204;42.698;23.298;2023-04-04T05:36:38;93508.25;;;10.36;100.00
6343;BME280;3204;42.698;23.298;2023-04-04T05:39:04;93513.66;;;10.48;100.00
6343;BME280;3204;42.698;23.298;2023-04-04T05:41:30;93512.75;;;10.56;100.00
6343;BME280;3204;42.698;23.298;2023-04-04T05:43:56;93510.03;;;10.56;100.00
6343;BME280;3204;42.698;23.298;2023-04-04T05:46:22;93527.81;;;10.69;100.00
6343;BME280;3204;42.698;23.298;2023-04-04T05:48:47;93508.59;;;10.74;99.73
6343;BME280;3204;42.698;23.298;2023-04-04T05:51:14;93518.19;;;10.83;99.61
6343;BME280;3204;42.698;23.298;2023-04-04T05:53:40;93523.91;;;10.94;99.52
6343;BME280;3204;42.698;23.298;2023-04-04T05:56:05;93520.78;;;11.07;98.52
6343;BME280;3204;42.698;23.298;2023-04-04T05:58:31;93528.84;;;11.04;97.48
6343;BME280;3204;42.698;23.298;2023-04-04T06:00:56;93518.16;;;11.11;97.24
6343;BME280;3204;42.698;23.298;2023-04-04T06:03:21;93522.84;;;10.98;96.90
6343;BME280;3204;42.698;23.298;2023-04-04T06:05:51;93520.06;;;10.95;98.23
6343;BME280;3204;42.698;23.298;2023-04-04T06:08:17;93528.13;;;11.07;97.37
6343;BME280;3204;42.698;23.298;2023-04-04T06:10:42;93525.88;;;11.09;96.80
6343;BME280;3204;42.698;23.298;2023-04-04T06:13:08;93523.94;;;11.09;97.54
6343;BME280;3204;42.698;23.298;2023-04-04T06:15:33;93531.47;;;11.16;97.51
6343;BME280;3204;42.698;23.298;2023-04-04T06:17:59;93537.28;;;11.30;95.11
6343;BME280;3204;42.698;23.298;2023-04-04T06:20:25;93543.84;;;11.29;95.90
6343;BME280;3204;42.698;23.298;2023-04-04T06:22:50;93543.44;;;11.27;95.15
6343;BME280;3204;42.698;23.298;2023-04-04T06:25:16;93551.31;;;11.32;95.63
6343;BME280;3204;42.698;23.298;2023-04-04T06:27:42;93545.53;;;11.06;94.51
6343;BME280;3204;42.698;23.298;2023-04-04T06:30:08;93555.41;;;10.71;94.20
6343;BME280;3204;42.698;23.298;2023-04-04T06:32:33;93575.78;;;10.41;91.40
6343;BME280;3204;42.698;23.298;2023-04-04T06:34:59;93576.59;;;10.17;91.42
6343;BME280;3204;42.698;23.298;2023-04-04T06:37:24;93585.59;;;9.85;88.01
6343;BME280;3204;42.698;23.298;2023-04-04T06:39:49;93598.19;;;9.69;87.26
6343;BME280;3204;42.698;23.298;2023-04-04T06:42:15;93600.53;;;9.59;85.48
6343;BME280;3204;42.698;23.298;2023-04-04T06:44:41;93605.88;;;9.23;84.89
6343;BME280;3204;42.698;23.298;2023-04-04T06:47:06;93607.75;;;8.90;86.04
6343;BME280;3204;42.698;23.298;2023-04-04T06:49:32;93607.69;;;8.57;88.55
6343;BME280;3204;42.698;23.298;2023-04-04T06:51:59;93611.47;;;8.36;87.03
6343;BME280;3204;42.698;23.298;2023-04-04T06:54:24;93618.66;;;8.32;88.21
6343;BME280;3204;42.698;23.298;2023-04-04T06:56:50;93616.13;;;8.27;87.82
6343;BME280;3204;42.698;23.298;2023-04-04T06:59:17;93624.72;;;8.29;87.06
6343;BME280;3204;42.698;23.298;2023-04-04T07:01:43;93633.94;;;8.28;85.76
6343;BME280;3204;42.698;23.298;2023-04-04T07:04:09;93632.91;;;8.03;85.74
6343;BME280;3204;42.698;23.298;2023-04-04T07:06:34;93647.75;;;7.89;84.60
6343;BME280;3204;42.698;23.298;2023-04-04T07:09:00;93652.06;;;7.81;84.87
6343;BME280;3204;42.698;23.298;2023-04-04T07:11:25;93667.97;;;7.74;84.43
6343;BME280;3204;42.698;23.298;2023-04-04T07:13:51;93680.06;;;7.60;84.35
6343;BME280;3204;42.698;23.298;2023-04-04T07:16:16;93688.19;;;7.43;84.81
6343;BME280;3204;42.698;23.298;2023-04-04T07:18:42;93696.47;;;7.38;84.60
6343;BME280;3204;42.698;23.298;2023-04-04T07:21:08;93697.56;;;7.28;84.79
6343;BME280;3204;42.698;23.298;2023-04-04T07:23:33;93692.16;;;7.37;84.87
6343;BME280;3204;42.698;23.298;2023-04-04T07:26:00;93702.16;;;7.45;85.43
6343;BME280;3204;42.698;23.298;2023-04-04T07:28:25;93718.78;;;7.47;84.59
6343;BME280;3204;42.698;23.298;2023-04-04T07:30:51;93717.53;;;7.36;83.36
6343;BME280;3204;42.698;23.298;2023-04-04T07:33:16;93726.09;;;7.29;83.89
6343;BME280;3204;42.698;23.298;2023-04-04T07:35:42;93725.16;;;7.08;82.94
6343;BME280;3204;42.698;23.298;2023-04-04T07:38:07;93726.91;;;7.04;83.65
6343;BME280;3204;42.698;23.298;2023-04-04T07:40:34;93733.88;;;6.97;83.50
6343;BME280;3204;42.698;23.298;2023-04-04T07:42:59;93743.06;;;7.13;83.76
6343;BME280;3204;42.698;23.298;2023-04-04T07:45:25;93744.31;;;6.90;82.95
6343;BME280;3204;42.698;23.298;2023-04-04T07:47:51;93748.25;;;6.67;82.18
6343;BME280;3204;42.698;23.298;2023-04-04T07:50:16;93736.22;;;6.73;82.81
6343;BME280;3204;42.698;23.298;2023-04-04T07:52:47;93741.25;;;6.66;83.64
6343;BME280;3204;42.698;23.298;2023-04-04T07:55:13;93753.97;;;6.65;82.76
6343;BME280;3204;42.698;23.298;2023-04-04T07:57:39;93749.69;;;6.64;83.02
6343;BME280;3204;42.698;23.298;2023-04-04T08:00:06;93748.13;;;6.72;82.35
6343;BME280;3204;42.698;23.298;2023-04-04T08:02:34;93750.47;;;6.73;81.94
6343;BME280;3204;42.698;23.298;2023-04-04T08:05:00;93758.75;;;6.77;82.07
6343;BME280;3204;42.698;23.298;2023-04-04T08:07:25;93761.13;;;6.78;81.99
6343;BME280;3204;42.698;23.298;2023-04-04T08:09:51;93765.84;;;6.73;81.90
6343;BME280;3204;42.698;23.298;2023-04-04T08:12:16;93782.03;;;6.81;80.35
6343;BME280;3204;42.698;23.298;2023-04-04T08:14:42;93781.22;;;6.72;81.62
6343;BME280;3204;42.698;23.298;2023-04-04T08:17:07;93775.81;;;6.72;81.70
6343;BME280;3204;42.698;23.298;2023-04-04T08:19:32;93785.34;;;6.70;82.03
6343;BME280;3204;42.698;23.298;2023-04-04T08:21:58;93789.81;;;6.83;81.37
6343;BME280;3204;42.698;23.298;2023-04-04T08:24:23;93797.28;;;6.86;81.98
6343;BME280;3204;42.698;23.298;2023-04-04T08:26:49;93794.22;;;6.79;82.74
6343;BME280;3204;42.698;23.298;2023-04-04T08:29:14;93800.59;;;6.83;82.61
6343;BME280;3204;42.698;23.298;2023-04-04T08:31:40;93810.41;;;6.87;80.32
6343;BME280;3204;42.698;23.298;2023-04-04T08:34:06;93810.09;;;6.89;80.62
6343;BME280;3204;42.698;23.298;2023-04-04T08:36:35;93811.66;;;6.73;81.05
6343;BME280;3204;42.698;23.298;2023-04-04T08:39:00;93811.81;;;6.68;80.98
6343;BME280;3204;42.698;23.298;2023-04-04T08:41:28;93815.59;;;6.67;80.23
6343;BME280;3204;42.698;23.298;2023-04-04T08:43:55;93811.00;;;6.67;80.58
6343;BME280;3204;42.698;23.298;2023-04-04T08:46:22;93822.75;;;6.71;80.19
6343;BME280;3204;42.698;23.298;2023-04-04T08:48:51;93809.41;;;6.66;78.97
6343;BME280;3204;42.698;23.298;2023-04-04T08:51:18;93826.56;;;6.79;78.75
6343;BME280;3204;42.698;23.298;2023-04-04T08:53:44;93826.09;;;6.77;80.11
6343;BME280;3204;42.698;23.298;2023-04-04T08:56:10;93837.84;;;6.81;79.90
6343;BME280;3204;42.698;23.298;2023-04-04T08:58:36;93841.81;;;6.83;80.36
6343;BME280;3204;42.698;23.298;2023-04-04T09:01:04;93845.78;;;6.86;79.09
6343;BME280;3204;42.698;23.298;2023-04-04T09:03:30;93843.72;;;6.91;78.89
6343;BME280;3204;42.698;23.298;2023-04-04T09:05:58;93841.97;;;6.87;78.85
6343;BME280;3204;42.698;23.298;2023-04-04T09:08:23;93841.59;;;6.71;79.83
6343;BME280;3204;42.698;23.298;2023-04-04T09:10:51;93837.03;;;6.72;80.85
6343;BME280;3204;42.698;23.298;2023-04-04T09:13:16;93848.25;;;6.74;80.23
6343;BME280;3204;42.698;23.298;2023-04-04T09:15:47;93846.69;;;6.73;79.98
6343;BME280;3204;42.698;23.298;2023-04-04T09:18:14;93844.59;;;6.70;79.98
6343;BME280;3204;42.698;23.298;2023-04-04T09:20:41;93854.41;;;6.66;79.86
6343;BME280;3204;42.698;23.298;2023-04-04T09:23:11;93846.97;;;6.63;79.69
6343;BME280;3204;42.698;23.298;2023-04-04T09:25:44;93850.13;;;6.65;79.24
6343;BME280;3204;42.698;23.298;2023-04-04T09:28:10;93854.41;;;6.66;79.16
6343;BME280;3204;42.698;23.298;2023-04-04T09:30:36;93859.19;;;6.77;79.33
6343;BME280;3204;42.698;23.298;2023-04-04T09:33:06;93858.72;;;6.67;80.57
6343;BME280;3204;42.698;23.298;2023-04-04T09:35:34;93863.47;;;6.70;79.77
6343;BME280;3204;42.698;23.298;2023-04-04T09:38:02;93855.69;;;6.68;79.81
6343;BME280;3204;42.698;23.298;2023-04-04T09:40:28;93865.19;;;6.66;77.99
6343;BME280;3204;42.698;23.298;2023-04-04T09:42:54;93864.56;;;6.69;78.40
6343;BME280;3204;42.698;23.298;2023-04-04T09:45:23;93867.53;;;6.59;77.81
6343;BME280;3204;42.698;23.298;2023-04-04T09:47:50;93874.94;;;6.53;79.43
6343;BME280;3204;42.698;23.298;2023-04-04T09:50:23;93869.63;;;6.62;79.39
6343;BME280;3204;42.698;23.298;2023-04-04T09:52:50;93845.31;;;6.53;78.23
6343;BME280;3204;42.698;23.298;2023-04-04T09:55:16;93876.22;;;6.56;77.49
6343;BME280;3204;42.698;23.298;2023-04-04T09:57:43;93864.03;;;6.58;77.94
6343;BME280;3204;42.698;23.298;2023-04-04T10:00:11;93873.41;;;6.61;78.03
6343;BME280;3204;42.698;23.298;2023-04-04T10:02:38;93871.94;;;6.55;77.73
6343;BME280;3204;42.698;23.298;2023-04-04T10:05:07;93869.41;;;6.50;78.63
6343;BME280;3204;42.698;23.298;2023-04-04T10:07:37;93866.28;;;6.65;77.14
6343;BME280;3204;42.698;23.298;2023-04-04T10:10:07;93874.38;;;6.65;76.95
6343;BME280;3204;42.698;23.298;2023-04-04T10:12:33;93882.19;;;6.75;75.79
6343;BME280;3204;42.698;23.298;2023-04-04T10:14:59;93880.41;;;6.62;76.17
6343;BME280;3204;42.698;23.298;2023-04-04T10:17:39;93885.88;;;6.57;76.22
6343;BME280;3204;42.698;23.298;2023-04-04T10:20:06;93886.66;;;6.49;76.55
6343;BME280;3204;42.698;23.298;2023-04-04T10:22:34;93883.66;;;6.50;77.06
6343;BME280;3204;42.698;23.298;2023-04-04T10:25:01;93895.59;;;6.58;77.70
6343;BME280;3204;42.698;23.298;2023-04-04T10:27:27;93893.66;;;6.58;76.61
6343;BME280;3204;42.698;23.298;2023-04-04T10:29:53;93895.63;;;6.66;76.88
6343;BME280;3204;42.698;23.298;2023-04-04T10:32:23;93905.53;;;6.88;76.55
6343;BME280;3204;42.698;23.298;2023-04-04T10:35:03;93904.94;;;6.99;75.97
6343;BME280;3204;42.698;23.298;2023-04-04T10:37:36;93915.28;;;7.06;76.04
6343;BME280;3204;42.698;23.298;2023-04-04T10:40:09;93923.84;;;7.08;75.31
6343;BME280;3204;42.698;23.298;2023-04-04T10:42:45;93919.09;;;7.05;75.08
6343;BME280;3204;42.698;23.298;2023-04-04T10:45:13;93924.00;;;7.11;76.05
6343;BME280;3204;42.698;23.298;2023-04-04T10:47:40;93921.66;;;7.10;76.67
6343;BME280;3204;42.698;23.298;2023-04-04T10:50:07;93925.63;;;7.12;76.89
6343;BME280;3204;42.698;23.298;2023-04-04T10:52:35;93924.81;;;7.20;74.92
6343;BME280;3204;42.698;23.298;2023-04-04T10:55:06;93926.22;;;7.01;75.87
6343;BME280;3204;42.698;23.298;2023-04-04T10:57:35;93939.31;;;6.94;75.83
6343;BME280;3204;42.698;23.298;2023-04-04T11:00:06;93931.22;;;6.94;76.26
6343;BME280;3204;42.698;23.298;2023-04-04T11:02:59;93941.38;;;6.88;76.33
6343;BME280;3204;42.698;23.298;2023-04-04T11:08:09;93936.72;;;6.80;77.00
6343;BME280;3204;42.698;23.298;2023-04-04T11:10:41;93937.19;;;6.82;76.55
6343;BME280;3204;42.698;23.298;2023-04-04T11:13:17;93940.28;;;6.98;76.42
6343;BME280;3204;42.698;23.298;2023-04-04T11:18:21;93941.84;;;6.90;76.88
6343;BME280;3204;42.698;23.298;2023-04-04T11:20:47;93944.56;;;6.99;77.22
6343;BME280;3204;42.698;23.298;2023-04-04T11:23:16;93945.41;;;7.08;77.82
6343;BME280;3204;42.698;23.298;2023-04-04T11:25:52;93936.72;;;7.11;77.65
6343;BME280;3204;42.698;23.298;2023-04-04T11:34:02;93957.91;;;7.04;78.95
6343;BME280;3204;42.698;23.298;2023-04-04T11:39:24;93952.75;;;6.85;79.01
6343;BME280;3204;42.698;23.298;2023-04-04T11:44:31;93953.78;;;6.67;79.13
6343;BME280;3204;42.698;23.298;2023-04-04T11:49:42;93959.97;;;6.68;79.17
6343;BME280;3204;42.698;23.298;2023-04-04T11:52:10;93958.59;;;6.79;79.17
6343;BME280;3204;42.698;23.298;2023-04-04T11:54:37;93964.97;;;6.83;79.43
6343;BME280;3204;42.698;23.298;2023-04-04T11:57:05;93961.00;;;6.89;78.80
6343;BME280;3204;42.698;23.298;2023-04-04T11:59:31;93972.72;;;6.84;77.15
6343;BME280;3204;42.698;23.298;2023-04-04T12:01:56;93965.88;;;6.48;78.65
6343;BME280;3204;42.698;23.298;2023-04-04T12:04:24;93956.00;;;6.43;79.56
6343;BME280;3204;42.698;23.298;2023-04-04T12:06:51;93962.63;;;6.37;79.69
6343;BME280;3204;42.698;23.298;2023-04-04T12:09:18;93951.03;;;6.37;77.92
6343;BME280;3204;42.698;23.298;2023-04-04T12:11:48;93967.97;;;6.29;78.26
6343;BME280;3204;42.698;23.298;2023-04-04T12:14:17;93959.31;;;6.18;79.21
6343;BME280;3204;42.698;23.298;2023-04-04T12:16:44;93969.47;;;6.21;79.84
6343;BME280;3204;42.698;23.298;2023-04-04T12:19:10;93968.84;;;6.24;78.83
6343;BME280;3204;42.698;23.298;2023-04-04T12:21:36;93966.59;;;6.18;79.21
6343;BME280;3204;42.698;23.298;2023-04-04T12:24:02;93974.66;;;6.18;80.10
6343;BME280;3204;42.698;23.298;2023-04-04T12:26:28;93963.25;;;6.12;79.87
6343;BME280;3204;42.698;23.298;2023-04-04T12:28:55;93971.78;;;6.14;80.27
6343;BME280;3204;42.698;23.298;2023-04-04T12:31:25;93965.59;;;6.14;80.31
6343;BME280;3204;42.698;23.298;2023-04-04T12:33:51;93973.94;;;6.26;80.46
6343;BME280;3204;42.698;23.298;2023-04-04T12:36:17;93974.91;;;6.08;80.37
6343;BME280;3204;42.698;23.298;2023-04-04T12:39:04;93967.47;;;6.05;81.06
6343;BME280;3204;42.698;23.298;2023-04-04T12:41:30;93980.06;;;6.18;80.40
6343;BME280;3204;42.698;23.298;2023-04-04T12:44:05;93994.13;;;6.15;79.54
6343;BME280;3204;42.698;23.298;2023-04-04T12:46:35;93984.44;;;6.14;79.67
6343;BME280;3204;42.698;23.298;2023-04-04T12:49:03;93974.53;;;6.01;80.14
6343;BME280;3204;42.698;23.298;2023-04-04T12:51:30;93985.84;;;6.11;79.86
6343;BME280;3204;42.698;23.298;2023-04-04T12:53:57;93987.94;;;6.14;80.40
6343;BME280;3204;42.698;23.298;2023-04-04T12:56:27;93987.34;;;6.17;80.87
6343;BME280;3204;42.698;23.298;2023-04-04T12:58:59;93991.88;;;6.08;80.17
6343;BME280;3204;42.698;23.298;2023-04-04T13:01:26;93999.00;;;6.13;80.09
6343;BME280;3204;42.698;23.298;2023-04-04T13:03:51;93993.03;;;6.16;79.45
6343;BME280;3204;42.698;23.298;2023-04-04T13:06:17;94001.75;;;5.99;79.09
6343;BME280;3204;42.698;23.298;2023-04-04T13:08:53;94001.97;;;5.89;80.40
6343;BME280;3204;42.698;23.298;2023-04-04T13:11:19;94006.63;;;5.97;80.82
6343;BME280;3204;42.698;23.298;2023-04-04T13:13:46;94000.94;;;5.99;80.54
6343;BME280;3204;42.698;23.298;2023-04-04T13:16:32;94016.63;;;5.83;79.71
6343;BME280;3204;42.698;23.298;2023-04-04T13:19:00;94012.63;;;5.67;80.64
6343;BME280;3204;42.698;23.298;2023-04-04T13:21:25;94007.56;;;5.66;80.77
6343;BME280;3204;42.698;23.298;2023-04-04T13:23:51;94015.84;;;5.56;82.15
6343;BME280;3204;42.698;23.298;2023-04-04T13:26:17;94020.63;;;5.59;81.01
6343;BME280;3204;42.698;23.298;2023-04-04T13:28:42;94014.75;;;5.57;81.78
6343;BME280;3204;42.698;23.298;2023-04-04T13:31:08;94020.84;;;5.49;82.73
6343;BME280;3204;42.698;23.298;2023-04-04T13:33:36;94019.44;;;5.51;82.20
6343;BME280;3204;42.698;23.298;2023-04-04T13:36:02;94028.19;;;5.57;82.68